Harrisonville, Missouri
Current Conditions -  °F | °C
As of 8:53 AM on Monday 22 Dec 2014 (Local Time) from KLXT Reporting Station
Light Rain Light Rain  
Wind Chill: 37°   Ceiling: 1000
Heat Index: 42°   Visibility: 6mi
Dew Point: 40°   Wind: 9mph
Humidity: 92%   Direction: 150°SSE
Pressure: 29.59"   Gusts: NA
Location:  38.65°N, 94.35°W
Report Text: KLXT 221453Z AUTO 15008KT 6SM -RA BR OVC010 06/04 A2959 RMK AO2 RAB06 SLP024 P0001 60001 T00560044 58013 TSNO
Loading
Personal Weather Stations






























Interactive Weather Map New forecast layout! Learn more

10-Day Weather Forecast

Advertisements
Track Severe Weather on mobile